createdAt,value
2023-03-23T00:01:31.755Z,13.76
2023-03-23T00:03:59.556Z,13.73
2023-03-23T00:06:27.777Z,13.71
2023-03-23T00:08:58.823Z,13.69
2023-03-23T00:11:27.776Z,13.67
2023-03-23T00:13:54.762Z,13.66
2023-03-23T00:16:30.212Z,13.65
2023-03-23T00:18:58.484Z,13.63
2023-03-23T00:21:34.769Z,13.64
2023-03-23T00:24:03.440Z,13.65
2023-03-23T00:26:31.454Z,13.65
2023-03-23T00:29:18.318Z,13.62
2023-03-23T00:31:48.896Z,13.60
2023-03-23T00:34:20.421Z,13.61
2023-03-23T00:36:48.596Z,13.58
2023-03-23T00:39:18.050Z,13.60
2023-03-23T00:41:45.643Z,13.57
2023-03-23T00:44:18.097Z,13.54
2023-03-23T00:46:51.070Z,13.57
2023-03-23T00:49:20.000Z,13.56
2023-03-23T00:51:47.073Z,13.57
2023-03-23T00:54:14.071Z,13.56
2023-03-23T00:56:41.313Z,13.55
2023-03-23T00:59:08.745Z,13.57
2023-03-23T01:01:36.788Z,13.58
2023-03-23T01:04:05.570Z,13.55
2023-03-23T01:06:36.423Z,13.56
2023-03-23T01:09:03.837Z,13.57
2023-03-23T01:11:30.893Z,13.55
2023-03-23T01:13:57.820Z,13.53
2023-03-23T01:16:25.180Z,13.50
2023-03-23T01:18:52.125Z,13.46
2023-03-23T01:21:20.545Z,13.45
2023-03-23T01:23:48.065Z,13.46
2023-03-23T01:26:16.641Z,13.45
2023-03-23T01:28:44.086Z,13.46
2023-03-23T01:31:14.523Z,13.44
2023-03-23T01:33:42.322Z,13.33
2023-03-23T01:36:11.599Z,13.28
2023-03-23T01:38:38.756Z,13.27
2023-03-23T01:41:05.964Z,13.26
2023-03-23T01:43:33.318Z,13.25
2023-03-23T01:46:00.367Z,13.26
2023-03-23T01:48:28.046Z,13.27
2023-03-23T01:50:58.720Z,13.28
2023-03-23T01:53:27.711Z,13.28
2023-03-23T01:55:55.500Z,13.26
2023-03-23T01:58:26.896Z,13.24
2023-03-23T02:00:56.695Z,13.24
2023-03-23T02:03:24.644Z,13.24
2023-03-23T02:05:52.449Z,13.25
2023-03-23T02:08:19.669Z,13.22
2023-03-23T02:10:46.712Z,13.23
2023-03-23T02:13:18.623Z,13.24
2023-03-23T02:15:48.563Z,13.21
2023-03-23T02:18:18.556Z,13.20
2023-03-23T02:20:46.031Z,13.15
2023-03-23T02:23:13.321Z,13.13
2023-03-23T02:25:40.934Z,13.14
2023-03-23T02:28:09.357Z,13.13
2023-03-23T02:30:39.420Z,13.12
2023-03-23T02:33:11.111Z,13.11
2023-03-23T02:35:40.820Z,13.08
2023-03-23T02:38:11.068Z,13.07
2023-03-23T02:40:41.740Z,13.04
2023-03-23T02:43:10.814Z,13.01
2023-03-23T02:45:39.667Z,12.98
2023-03-23T02:48:07.871Z,12.96
2023-03-23T02:50:37.190Z,12.95
2023-03-23T02:53:05.700Z,12.94
2023-03-23T02:55:33.607Z,12.90
2023-03-23T02:58:03.298Z,12.86
2023-03-23T03:00:30.867Z,12.85
2023-03-23T03:02:58.599Z,12.82
2023-03-23T03:05:26.198Z,12.79
2023-03-23T03:07:56.359Z,12.78
2023-03-23T03:10:27.253Z,12.76
2023-03-23T03:12:57.288Z,12.78
2023-03-23T03:15:28.154Z,12.80
2023-03-23T03:17:58.201Z,12.78
2023-03-23T03:20:27.732Z,12.80
2023-03-23T03:22:56.677Z,12.79
2023-03-23T03:25:24.654Z,12.74
2023-03-23T03:27:53.750Z,12.70
2023-03-23T03:30:25.212Z,12.66
2023-03-23T03:32:54.763Z,12.62
2023-03-23T03:35:23.368Z,12.59
2023-03-23T03:37:52.165Z,12.56
2023-03-23T03:40:21.323Z,12.56
2023-03-23T03:42:48.463Z,12.55
2023-03-23T03:45:17.245Z,12.49
2023-03-23T03:47:44.260Z,12.45
2023-03-23T03:50:11.545Z,12.43
2023-03-23T03:52:39.585Z,12.39
2023-03-23T03:55:08.241Z,12.39
2023-03-23T03:57:35.876Z,12.36
2023-03-23T04:00:14.210Z,12.37
2023-03-23T04:02:44.323Z,12.35
2023-03-23T04:05:12.912Z,12.33
2023-03-23T04:07:40.716Z,12.31
2023-03-23T04:10:08.388Z,12.33
2023-03-23T04:12:36.276Z,12.29
2023-03-23T04:15:06.402Z,12.28
2023-03-23T04:17:33.923Z,12.25
2023-03-23T04:20:01.436Z,12.25
2023-03-23T04:22:32.133Z,12.26
2023-03-23T04:24:59.903Z,12.26
2023-03-23T04:27:29.283Z,12.22
2023-03-23T04:29:57.615Z,12.20
2023-03-23T04:32:26.296Z,12.18
2023-03-23T04:34:53.525Z,12.14
2023-03-23T04:37:40.107Z,12.08
2023-03-23T04:40:11.188Z,12.06
2023-03-23T04:42:38.919Z,12.05
2023-03-23T04:45:07.515Z,12.07
2023-03-23T04:47:40.856Z,12.07
2023-03-23T04:50:10.657Z,12.06
2023-03-23T04:52:41.689Z,12.03
2023-03-23T04:55:16.176Z,12.04
2023-03-23T04:57:43.288Z,12.06
2023-03-23T05:00:14.067Z,12.03
2023-03-23T05:02:41.513Z,12.05
2023-03-23T05:05:08.968Z,12.04
2023-03-23T05:07:36.194Z,12.02
2023-03-23T05:10:03.248Z,12.05
2023-03-23T05:12:30.193Z,11.98
2023-03-23T05:14:57.145Z,11.97
2023-03-23T05:17:25.270Z,11.95
2023-03-23T05:19:52.648Z,11.97
2023-03-23T05:22:22.088Z,11.99
2023-03-23T05:24:49.080Z,12.02
2023-03-23T05:27:16.281Z,12.05
2023-03-23T05:29:43.223Z,12.10
2023-03-23T05:32:10.243Z,12.12
2023-03-23T05:34:37.131Z,12.17
2023-03-23T05:37:04.715Z,12.18
2023-03-23T05:39:32.518Z,12.18
2023-03-23T05:41:59.796Z,12.20
2023-03-23T05:44:27.916Z,12.20
2023-03-23T05:47:00.857Z,12.23
2023-03-23T05:49:28.417Z,12.22
2023-03-23T05:51:55.677Z,12.19
2023-03-23T05:54:22.672Z,12.13
2023-03-23T05:56:50.322Z,12.10
2023-03-23T05:59:21.000Z,12.05
2023-03-23T06:01:48.030Z,12.04
2023-03-23T06:04:18.414Z,12.03
2023-03-23T06:06:45.440Z,12.02
2023-03-23T06:09:13.127Z,12.03
2023-03-23T06:11:40.063Z,12.02
2023-03-23T06:14:07.043Z,12.02
2023-03-23T06:16:34.044Z,11.99
2023-03-23T06:19:02.157Z,12.07
2023-03-23T06:21:29.467Z,12.10
2023-03-23T06:23:57.241Z,12.13
2023-03-23T06:26:27.392Z,12.16
2023-03-23T06:28:54.433Z,12.17
2023-03-23T06:31:21.799Z,12.21
2023-03-23T06:33:48.724Z,12.25
2023-03-23T06:36:15.714Z,12.27
2023-03-23T06:38:42.759Z,12.26
2023-03-23T06:41:10.134Z,12.30
2023-03-23T06:43:40.605Z,12.38
2023-03-23T06:46:08.141Z,12.44
2023-03-23T06:48:35.185Z,12.54
2023-03-23T06:51:02.131Z,12.58
2023-03-23T06:53:29.116Z,12.61
2023-03-23T06:55:56.067Z,12.57
2023-03-23T06:58:25.001Z,12.57
2023-03-23T07:00:55.084Z,12.63
2023-03-23T07:03:22.076Z,12.67
2023-03-23T07:05:49.117Z,12.73
2023-03-23T07:08:16.254Z,12.82
2023-03-23T07:10:43.994Z,12.89
2023-03-23T07:13:11.825Z,12.93
2023-03-23T07:15:40.358Z,12.94
2023-03-23T07:18:07.657Z,12.95
2023-03-23T07:20:34.674Z,13.02
2023-03-23T07:23:03.425Z,13.02
2023-03-23T07:25:30.443Z,13.21
2023-03-23T07:27:57.701Z,13.42
2023-03-23T07:30:24.827Z,13.66
2023-03-23T07:32:56.916Z,13.88
2023-03-23T07:35:24.563Z,14.12
2023-03-23T07:37:53.344Z,14.38
2023-03-23T07:40:28.049Z,14.92
2023-03-23T07:42:56.858Z,15.24
2023-03-23T07:45:24.665Z,15.22
2023-03-23T07:47:52.307Z,15.02
2023-03-23T07:50:22.606Z,14.90
2023-03-23T07:52:49.724Z,14.85
2023-03-23T07:55:19.043Z,15.12
2023-03-23T07:57:47.020Z,15.31
2023-03-23T08:00:20.431Z,15.87
2023-03-23T08:02:48.360Z,16.24
2023-03-23T08:05:16.511Z,16.32
2023-03-23T08:07:44.214Z,16.14
2023-03-23T08:10:12.356Z,15.82
2023-03-23T08:12:40.502Z,15.65
2023-03-23T08:15:08.522Z,15.52
2023-03-23T08:17:36.143Z,15.42
2023-03-23T08:20:10.450Z,15.31
2023-03-23T08:22:44.746Z,15.20
2023-03-23T08:25:19.445Z,15.34
2023-03-23T08:27:46.994Z,15.73
2023-03-23T08:30:15.560Z,16.16
2023-03-23T08:32:42.966Z,16.20
2023-03-23T08:35:11.116Z,16.02
2023-03-23T08:37:38.831Z,15.86
2023-03-23T08:40:10.133Z,15.76
2023-03-23T08:42:39.575Z,15.67
2023-03-23T08:45:08.519Z,15.60
2023-03-23T08:47:36.899Z,15.62
2023-03-23T08:50:04.720Z,15.57
2023-03-23T08:52:32.217Z,15.64
2023-03-23T08:54:59.675Z,15.64
2023-03-23T08:57:27.597Z,15.51
2023-03-23T08:59:58.934Z,15.45
2023-03-23T09:02:26.204Z,15.44
2023-03-23T09:04:54.273Z,15.45
2023-03-23T09:07:21.379Z,15.38
2023-03-23T09:09:48.685Z,15.41
2023-03-23T09:12:15.764Z,15.44
2023-03-23T09:14:43.301Z,15.47
2023-03-23T09:17:12.686Z,15.45
2023-03-23T09:19:40.027Z,15.44
2023-03-23T09:22:07.280Z,15.47
2023-03-23T09:24:34.585Z,15.49
2023-03-23T09:27:01.668Z,15.47
2023-03-23T09:29:30.461Z,15.50
2023-03-23T09:31:57.680Z,15.52
2023-03-23T09:34:24.804Z,15.56
2023-03-23T09:36:53.416Z,15.54
2023-03-23T09:39:21.315Z,15.53
2023-03-23T09:41:50.754Z,15.48
2023-03-23T09:44:24.413Z,15.52
2023-03-23T09:46:52.882Z,15.57
2023-03-23T09:49:25.151Z,15.57
2023-03-23T09:51:54.562Z,15.63
2023-03-23T09:54:22.173Z,15.63
2023-03-23T09:56:49.798Z,15.65
2023-03-23T09:59:20.539Z,15.79
2023-03-23T10:01:50.239Z,15.93
2023-03-23T10:04:23.460Z,16.00
2023-03-23T10:06:50.826Z,15.99
2023-03-23T10:09:20.237Z,15.97
2023-03-23T10:11:48.804Z,16.03
2023-03-23T10:14:24.168Z,16.00
2023-03-23T10:16:57.145Z,16.02
2023-03-23T10:19:27.603Z,15.97
2023-03-23T10:21:58.448Z,16.13
2023-03-23T10:24:31.448Z,16.31
2023-03-23T10:27:06.930Z,16.34
2023-03-23T10:29:38.276Z,16.30
2023-03-23T10:32:11.444Z,16.23
2023-03-23T10:34:41.989Z,16.23
2023-03-23T10:37:10.368Z,16.20
2023-03-23T10:39:40.521Z,16.20
2023-03-23T10:42:09.201Z,16.18
2023-03-23T10:44:36.261Z,16.12
2023-03-23T10:47:05.630Z,16.16
2023-03-23T10:49:35.895Z,16.18
2023-03-23T10:52:03.572Z,16.22
2023-03-23T10:54:34.245Z,16.26
2023-03-23T10:57:03.857Z,16.33
2023-03-23T10:59:33.801Z,16.49
2023-03-23T11:02:04.323Z,16.54
2023-03-23T11:04:32.808Z,16.62
2023-03-23T11:07:02.404Z,16.71
2023-03-23T11:09:32.505Z,16.79
2023-03-23T11:12:02.591Z,16.84
2023-03-23T11:14:31.494Z,16.76
2023-03-23T11:17:10.290Z,16.72
2023-03-23T11:19:43.016Z,16.76
2023-03-23T11:22:15.900Z,16.80
2023-03-23T11:24:47.095Z,16.75
2023-03-23T11:27:15.540Z,16.78
2023-03-23T11:29:51.981Z,16.80
2023-03-23T11:32:27.651Z,16.83
2023-03-23T11:35:06.904Z,16.89
2023-03-23T11:37:44.077Z,16.87
2023-03-23T11:40:12.761Z,16.81
2023-03-23T11:42:42.961Z,16.83
2023-03-23T11:45:13.068Z,16.80
2023-03-23T11:47:42.908Z,16.84
2023-03-23T11:50:11.926Z,16.77
2023-03-23T11:52:40.349Z,16.73
2023-03-23T11:55:11.161Z,16.76
2023-03-23T11:57:38.384Z,16.80
2023-03-23T12:00:09.158Z,16.82
2023-03-23T12:02:36.584Z,16.74
2023-03-23T12:05:07.301Z,16.58
2023-03-23T12:07:38.104Z,16.55
2023-03-23T12:10:08.273Z,16.64
2023-03-23T12:12:38.520Z,16.77
2023-03-23T12:15:08.740Z,16.83
2023-03-23T12:17:42.915Z,16.87
2023-03-23T12:20:16.017Z,16.87
2023-03-23T12:22:46.179Z,16.98
2023-03-23T12:25:16.680Z,17.06
2023-03-23T12:27:48.469Z,17.04
2023-03-23T12:30:18.701Z,17.05
2023-03-23T12:32:48.886Z,17.09
2023-03-23T12:35:21.560Z,17.20
2023-03-23T12:37:54.743Z,17.30
2023-03-23T12:40:30.146Z,17.38
2023-03-23T12:43:00.412Z,17.44
2023-03-23T12:45:30.901Z,17.45
2023-03-23T12:48:01.824Z,17.33
2023-03-23T12:50:32.016Z,17.29
2023-03-23T12:53:05.726Z,17.30
2023-03-23T12:55:36.116Z,17.27
2023-03-23T12:58:07.545Z,17.29
2023-03-23T13:00:40.038Z,17.33
2023-03-23T13:03:10.186Z,17.40
2023-03-23T13:05:42.309Z,17.44
2023-03-23T13:08:13.725Z,17.42
2023-03-23T13:10:44.319Z,17.43
2023-03-23T13:13:21.162Z,17.44
2023-03-23T13:15:51.560Z,17.45
2023-03-23T13:18:26.580Z,17.48
2023-03-23T13:20:57.098Z,17.44
2023-03-23T13:23:26.514Z,17.39
2023-03-23T13:25:57.985Z,17.36
2023-03-23T13:28:27.480Z,17.40
2023-03-23T13:30:58.725Z,17.42
2023-03-23T13:33:26.853Z,17.46
2023-03-23T13:35:55.504Z,17.50
2023-03-23T13:38:26.112Z,17.52
2023-03-23T13:40:55.244Z,17.51
2023-03-23T13:43:25.717Z,17.51
2023-03-23T13:45:55.408Z,17.42
2023-03-23T13:48:25.470Z,17.35
2023-03-23T13:50:55.615Z,17.30
2023-03-23T13:53:30.412Z,17.25
2023-03-23T13:56:05.857Z,17.28
2023-03-23T13:58:46.110Z,17.31
2023-03-23T14:01:17.708Z,17.35
2023-03-23T14:03:51.894Z,17.41
2023-03-23T14:06:22.690Z,17.38
2023-03-23T14:08:52.329Z,17.34
2023-03-23T14:11:23.166Z,17.26
2023-03-23T14:13:53.710Z,17.25
2023-03-23T14:16:22.761Z,17.22
2023-03-23T14:18:53.181Z,17.18
2023-03-23T14:21:28.435Z,17.17
2023-03-23T14:23:58.004Z,17.10
2023-03-23T14:26:25.395Z,17.07
2023-03-23T14:28:54.923Z,17.04
2023-03-23T14:31:26.032Z,16.94
2023-03-23T14:33:54.829Z,16.91
2023-03-23T14:36:23.564Z,16.84
2023-03-23T14:38:58.801Z,16.82
2023-03-23T14:41:29.308Z,16.78
2023-03-23T14:43:56.591Z,16.70
2023-03-23T14:46:26.265Z,16.64
2023-03-23T14:48:53.937Z,16.65
2023-03-23T14:51:22.420Z,16.58
2023-03-23T14:53:52.512Z,16.60
2023-03-23T14:56:21.072Z,16.58
2023-03-23T14:58:49.681Z,16.49
2023-03-23T15:01:20.515Z,16.45
2023-03-23T15:03:52.814Z,16.46
2023-03-23T15:06:22.260Z,16.46
2023-03-23T15:08:51.119Z,16.41
2023-03-23T15:11:19.852Z,16.36
2023-03-23T15:14:00.723Z,16.30
2023-03-23T15:16:29.513Z,16.26
2023-03-23T15:18:57.340Z,16.18
2023-03-23T15:21:27.780Z,16.15
2023-03-23T15:23:56.001Z,16.14
2023-03-23T15:26:27.497Z,16.06
2023-03-23T15:28:57.964Z,15.92
2023-03-23T15:31:26.025Z,15.74
2023-03-23T15:33:57.209Z,15.66
2023-03-23T15:36:24.614Z,15.53
2023-03-23T15:38:52.279Z,15.36
2023-03-23T15:41:22.768Z,15.32
2023-03-23T15:43:52.629Z,15.27
2023-03-23T15:46:22.689Z,15.22
2023-03-23T15:48:53.349Z,15.23
2023-03-23T15:51:21.656Z,15.25
2023-03-23T15:53:50.381Z,15.25
2023-03-23T15:56:18.709Z,15.26
2023-03-23T15:58:46.458Z,15.19
2023-03-23T16:01:16.102Z,15.18
2023-03-23T16:03:45.598Z,15.21
2023-03-23T16:06:25.334Z,15.20
2023-03-23T16:08:55.642Z,15.08
2023-03-23T16:11:24.266Z,15.09
2023-03-23T16:13:51.642Z,15.08
2023-03-23T16:16:23.048Z,15.07
2023-03-23T16:18:50.845Z,14.94
2023-03-23T16:21:18.351Z,14.88
2023-03-23T16:23:46.996Z,14.83
2023-03-23T16:26:15.159Z,14.85
2023-03-23T16:28:43.178Z,14.81
2023-03-23T16:31:10.897Z,14.81
2023-03-23T16:33:38.766Z,14.81
2023-03-23T16:36:06.694Z,14.79
2023-03-23T16:38:34.208Z,14.75
2023-03-23T16:41:17.478Z,14.72
2023-03-23T16:43:45.265Z,14.74
2023-03-23T16:46:14.039Z,14.72
2023-03-23T16:48:41.656Z,14.67
2023-03-23T16:51:09.270Z,14.61
2023-03-23T16:53:37.665Z,14.60
2023-03-23T16:56:05.731Z,14.59
2023-03-23T16:58:33.272Z,14.59
2023-03-23T17:01:01.984Z,14.57
2023-03-23T17:03:29.505Z,14.53
2023-03-23T17:05:57.307Z,14.52
2023-03-23T17:08:24.830Z,14.47
2023-03-23T17:10:52.115Z,14.43
2023-03-23T17:13:19.698Z,14.38
2023-03-23T17:15:47.610Z,14.38
2023-03-23T17:18:15.965Z,14.38
2023-03-23T17:20:44.123Z,14.38
2023-03-23T17:23:11.961Z,14.38
2023-03-23T17:25:39.464Z,14.36
2023-03-23T17:28:07.312Z,14.40
2023-03-23T17:30:35.811Z,14.42
2023-03-23T17:33:03.419Z,14.43
2023-03-23T17:35:31.175Z,14.38
2023-03-23T17:37:59.009Z,14.37
2023-03-23T17:40:26.768Z,14.39
2023-03-23T17:42:54.224Z,14.37
2023-03-23T17:45:24.719Z,14.34
2023-03-23T17:47:52.150Z,14.27
2023-03-23T17:50:19.811Z,14.30
2023-03-23T17:52:47.342Z,14.32
2023-03-23T17:55:14.714Z,14.32
2023-03-23T17:57:43.980Z,14.34
2023-03-23T18:00:13.334Z,14.32
2023-03-23T18:02:42.095Z,14.26
2023-03-23T18:05:10.763Z,14.24
2023-03-23T18:07:38.548Z,14.24
2023-03-23T18:10:12.266Z,14.23
2023-03-23T18:12:41.900Z,14.22
2023-03-23T18:15:10.325Z,14.23
2023-03-23T18:17:38.257Z,14.23
2023-03-23T18:20:06.608Z,14.23
2023-03-23T18:22:34.089Z,14.18
2023-03-23T18:25:03.773Z,14.14
2023-03-23T18:27:31.801Z,14.13
2023-03-23T18:29:59.619Z,14.10
2023-03-23T18:32:32.994Z,14.04
2023-03-23T18:35:00.352Z,14.04
2023-03-23T18:37:28.600Z,14.05
2023-03-23T18:39:56.155Z,14.04
2023-03-23T18:42:23.384Z,14.02
2023-03-23T18:44:50.549Z,13.98
2023-03-23T18:47:22.048Z,13.98
2023-03-23T18:49:54.520Z,13.96
2023-03-23T18:52:22.736Z,13.97
2023-03-23T18:54:50.107Z,13.97
2023-03-23T18:57:18.508Z,13.96
2023-03-23T18:59:46.103Z,13.95
2023-03-23T19:02:14.615Z,13.93
2023-03-23T19:04:42.109Z,13.95
2023-03-23T19:07:09.590Z,13.96
2023-03-23T19:09:37.298Z,13.96
2023-03-23T19:12:04.592Z,13.95
2023-03-23T19:14:32.059Z,13.96
2023-03-23T19:16:59.393Z,13.94
2023-03-23T19:19:27.061Z,13.91
2023-03-23T19:21:54.365Z,13.93
2023-03-23T19:24:21.606Z,13.94
2023-03-23T19:26:48.942Z,13.95
2023-03-23T19:31:48.274Z,13.98
2023-03-23T19:34:16.454Z,13.97
2023-03-23T19:36:53.712Z,13.95
2023-03-23T19:39:23.798Z,13.94
2023-03-23T19:41:51.668Z,13.94
2023-03-23T19:44:18.800Z,13.99
2023-03-23T19:46:46.190Z,14.05
2023-03-23T19:49:14.658Z,14.11
2023-03-23T19:51:41.941Z,14.16
2023-03-23T19:54:09.097Z,14.12
2023-03-23T19:56:36.619Z,14.11
2023-03-23T19:59:05.028Z,14.10
2023-03-23T20:01:32.591Z,14.10
2023-03-23T20:04:02.128Z,14.06
2023-03-23T20:06:29.837Z,14.08
2023-03-23T20:09:00.210Z,14.08
2023-03-23T20:11:28.243Z,14.08
2023-03-23T20:13:56.012Z,14.09
2023-03-23T20:16:23.744Z,14.08
2023-03-23T20:18:50.961Z,14.06
2023-03-23T20:21:22.346Z,14.04
2023-03-23T20:23:50.704Z,14.05
2023-03-23T20:26:19.699Z,14.02
2023-03-23T20:28:47.743Z,13.99
2023-03-23T20:31:23.109Z,14.01
2023-03-23T20:33:59.917Z,13.98
2023-03-23T20:36:35.255Z,13.97
2023-03-23T20:39:05.813Z,13.92
2023-03-23T20:41:33.505Z,13.89
2023-03-23T20:44:00.658Z,13.81
2023-03-23T20:46:28.186Z,13.83
2023-03-23T20:48:55.360Z,13.82
2023-03-23T20:51:22.703Z,13.85
2023-03-23T20:53:50.504Z,13.84
2023-03-23T20:56:17.667Z,13.84
2023-03-23T20:58:45.183Z,13.83
2023-03-23T21:01:12.386Z,13.79
2023-03-23T21:03:40.847Z,13.80
2023-03-23T21:06:08.489Z,13.80
2023-03-23T21:08:37.542Z,13.80
2023-03-23T21:11:05.630Z,13.77
2023-03-23T21:13:32.699Z,13.74
2023-03-23T21:16:01.442Z,13.71
2023-03-23T21:18:28.894Z,13.73
2023-03-23T21:20:57.750Z,13.69
2023-03-23T21:23:27.061Z,13.71
2023-03-23T21:25:55.022Z,13.73
2023-03-23T21:28:22.463Z,13.65
2023-03-23T21:30:52.899Z,13.64
2023-03-23T21:33:20.503Z,13.63
2023-03-23T21:35:47.716Z,13.57
2023-03-23T21:38:15.466Z,13.57
2023-03-23T21:40:43.330Z,13.56
2023-03-23T21:43:15.167Z,13.52
2023-03-23T21:45:42.935Z,13.50
2023-03-23T21:48:10.879Z,13.55
2023-03-23T21:50:38.906Z,13.53
2023-03-23T21:53:06.056Z,13.49
2023-03-23T21:55:34.064Z,13.50
2023-03-23T21:58:01.514Z,13.47
2023-03-23T22:00:28.841Z,13.47
2023-03-23T22:02:56.008Z,13.49
2023-03-23T22:05:23.343Z,13.46
2023-03-23T22:07:51.573Z,13.43
2023-03-23T22:10:18.842Z,13.41
2023-03-23T22:12:46.202Z,13.42
2023-03-23T22:15:14.303Z,13.41
2023-03-23T22:17:41.609Z,13.34
2023-03-23T22:20:11.667Z,13.34
2023-03-23T22:22:38.696Z,13.33
2023-03-23T22:25:06.696Z,13.30
2023-03-23T22:27:33.973Z,13.32
2023-03-23T22:30:01.028Z,13.31
2023-03-23T22:32:28.285Z,13.32
2023-03-23T22:34:55.361Z,13.31
2023-03-23T22:37:22.510Z,13.27
2023-03-23T22:39:49.622Z,13.23
2023-03-23T22:42:16.725Z,13.20
2023-03-23T22:44:43.979Z,13.24
2023-03-23T22:47:11.548Z,13.22
2023-03-23T22:49:39.494Z,13.18
2023-03-23T22:52:06.959Z,13.15
2023-03-23T22:54:34.141Z,13.16
2023-03-23T22:57:01.352Z,13.16
2023-03-23T22:59:28.458Z,13.16
2023-03-23T23:01:55.575Z,13.13
2023-03-23T23:04:22.747Z,13.10
2023-03-23T23:06:50.933Z,13.12
2023-03-23T23:09:20.718Z,13.13
2023-03-23T23:11:47.875Z,13.13
2023-03-23T23:14:14.993Z,13.11
2023-03-23T23:16:42.860Z,13.08
2023-03-23T23:19:10.042Z,13.05
2023-03-23T23:21:37.456Z,13.04
2023-03-23T23:24:04.628Z,13.04
2023-03-23T23:26:31.735Z,13.05
2023-03-23T23:28:58.812Z,13.10
2023-03-23T23:31:27.631Z,13.13
2023-03-23T23:33:55.713Z,13.15
2023-03-23T23:36:23.110Z,13.11
2023-03-23T23:38:50.216Z,13.14
2023-03-23T23:41:17.428Z,13.13
2023-03-23T23:43:44.616Z,13.10
2023-03-23T23:46:11.959Z,13.16
2023-03-23T23:48:39.209Z,13.17
2023-03-23T23:51:06.968Z,13.14
2023-03-23T23:53:34.345Z,13.16
2023-03-23T23:56:03.247Z,13.17
2023-03-23T23:58:30.429Z,13.15
